Time;durP1;ratioP1;P1;durP2;ratioP2;P2;SDS_P1;SDS_P2;PMS_P1;PMS_P2;Temp;Humidity;BMP_temperature;BMP_pressure;BME280_temperature;BME280_humidity;BME280_pressure;Samples;Min_cycle;Max_cycle;Signal;HPM_P1;HPM_P2
2022/03/28 00:01:55;;;;;;;0.98;0.85;;;20.30;49.70;;;;;;5093871;28;20047;-72
2022/03/28 00:04:21;;;;;;;0.90;0.68;;;20.30;49.70;;;;;;5076686;27;20126;-71
2022/03/28 00:06:47;;;;;;;1.23;0.90;;;20.30;49.70;;;;;;5093166;28;20401;-72
2022/03/28 00:09:13;;;;;;;1.50;0.85;;;20.20;49.60;;;;;;5111308;28;20035;-72
2022/03/28 00:11:39;;;;;;;1.30;0.80;;;20.20;49.60;;;;;;5093245;28;20406;-71
2022/03/28 00:14:05;;;;;;;2.00;0.90;;;20.20;49.70;;;;;;5111566;28;20490;-72
2022/03/28 00:16:31;;;;;;;1.52;0.95;;;20.20;49.70;;;;;;5111254;28;20040;-71
2022/03/28 00:18:57;;;;;;;1.13;0.85;;;20.20;49.70;;;;;;5093574;28;20462;-71
2022/03/28 00:21:22;;;;;;;1.98;1.00;;;20.20;49.70;;;;;;5111020;28;20088;-72
2022/03/28 00:23:48;;;;;;;1.67;1.00;;;20.10;49.60;;;;;;5111101;28;20044;-72
2022/03/28 00:26:14;;;;;;;2.47;1.20;;;20.20;49.70;;;;;;5111906;28;20398;-70
2022/03/28 00:28:39;;;;;;;1.27;1.00;;;20.20;49.70;;;;;;5092841;28;20096;-72
2022/03/28 00:31:05;;;;;;;1.20;1.02;;;20.20;49.70;;;;;;5118203;27;20122;-71
2022/03/28 00:33:31;;;;;;;1.42;0.93;;;20.10;49.70;;;;;;5111732;28;20091;-71
2022/03/28 00:35:56;;;;;;;1.73;1.20;;;20.20;49.70;;;;;;5110991;28;20051;-72
2022/03/28 00:38:22;;;;;;;2.10;1.13;;;20.10;49.60;;;;;;5111890;28;20032;-72
2022/03/28 00:40:48;;;;;;;3.00;1.40;;;20.10;49.60;;;;;;5111344;28;20142;-70
2022/03/28 00:43:14;;;;;;;1.75;1.33;;;20.10;49.60;;;;;;5093770;28;20394;-72
2022/03/28 00:45:41;;;;;;;1.55;1.40;;;20.10;49.60;;;;;;5111120;28;20055;-72
2022/03/28 00:48:08;;;;;;;2.17;1.70;;;20.10;49.60;;;;;;5111761;28;20032;-71
2022/03/28 00:50:35;;;;;;;3.33;1.45;;;20.10;49.60;;;;;;5110405;28;20474;-72
2022/03/28 00:53:02;;;;;;;2.50;1.63;;;20.10;49.50;;;;;;5106073;28;20043;-71
2022/03/28 00:55:28;;;;;;;2.67;1.73;;;20.10;49.50;;;;;;5072544;28;20070;-71
2022/03/28 00:57:54;;;;;;;2.80;1.73;;;20.10;49.50;;;;;;5094572;28;20467;-71
2022/03/28 01:00:20;;;;;;;2.33;1.73;;;20.10;49.50;;;;;;5094048;27;20035;-71
2022/03/28 01:02:46;;;;;;;2.85;1.70;;;20.10;49.50;;;;;;5107459;28;20432;-72
2022/03/28 01:05:13;;;;;;;2.15;1.95;;;20.10;49.50;;;;;;5110401;28;21489;-72
2022/03/28 01:07:40;;;;;;;2.38;1.70;;;20.10;49.40;;;;;;5111869;28;20039;-71
2022/03/28 01:10:09;;;;;;;3.17;1.80;;;20.10;49.40;;;;;;5110762;28;20035;-72
2022/03/28 01:12:35;;;;;;;2.33;1.60;;;20.10;49.40;;;;;;5101182;28;20510;-72
2022/03/28 01:15:01;;;;;;;1.60;1.48;;;20.10;49.40;;;;;;5110871;28;20122;-71
2022/03/28 01:20:11;;;;;;;2.10;1.90;;;20.10;49.40;;;;;;5110070;28;20036;-70
2022/03/28 01:22:37;;;;;;;2.78;1.90;;;20.10;49.40;;;;;;5110621;28;20031;-71
2022/03/28 01:25:06;;;;;;;2.22;2.03;;;20.10;49.40;;;;;;5092831;28;20427;-73
2022/03/28 01:27:31;;;;;;;;;;;20.00;49.30;;;;;;5112051;28;20051;-72
2022/03/28 01:29:57;;;;;;;1.90;1.70;;;20.10;49.20;;;;;;5125816;27;19923;-70
2022/03/28 01:32:23;;;;;;;2.40;1.77;;;20.00;49.20;;;;;;5091682;28;20044;-72
2022/03/28 01:34:49;;;;;;;2.08;1.65;;;20.10;49.30;;;;;;5110582;28;20036;-72
2022/03/28 01:37:15;;;;;;;2.35;1.88;;;20.00;49.20;;;;;;5090465;28;20074;-72
2022/03/28 01:39:40;;;;;;;2.95;1.90;;;20.00;49.20;;;;;;5105129;28;20126;-72
2022/03/28 01:42:06;;;;;;;2.25;1.80;;;20.00;49.20;;;;;;5125395;27;20070;-71
2022/03/28 01:44:32;;;;;;;3.63;2.30;;;20.00;49.20;;;;;;5110306;28;20502;-72
2022/03/28 01:46:58;;;;;;;2.00;1.80;;;20.00;49.20;;;;;;5109259;28;20039;-71
2022/03/28 01:49:24;;;;;;;2.15;1.90;;;20.00;49.20;;;;;;5109705;28;20436;-72
2022/03/28 01:51:50;;;;;;;2.78;1.88;;;20.00;49.30;;;;;;5109343;28;20062;-71
2022/03/28 01:54:17;;;;;;;2.28;1.80;;;20.00;49.20;;;;;;5110598;28;20054;-72
2022/03/28 01:56:43;;;;;;;2.05;1.85;;;20.00;49.20;;;;;;5091940;28;20062;-72
2022/03/28 01:59:10;;;;;;;3.90;2.42;;;20.00;49.20;;;;;;5109780;28;20035;-73
2022/03/28 02:01:37;;;;;;;2.67;1.90;;;20.00;49.20;;;;;;5107959;28;20036;-71
2022/03/28 02:04:04;;;;;;;2.40;1.90;;;20.00;49.20;;;;;;5090566;28;20494;-72
2022/03/28 02:06:32;;;;;;;2.13;1.75;;;20.00;49.20;;;;;;5106106;28;20043;-72
2022/03/28 02:08:58;;;;;;;6.82;1.80;;;20.00;49.30;;;;;;5100877;28;20074;-74
2022/03/28 02:11:24;;;;;;;3.28;1.80;;;20.00;49.30;;;;;;5110541;28;20067;-72
2022/03/28 02:13:49;;;;;;;3.15;2.00;;;20.00;49.30;;;;;;5110222;28;20047;-72
2022/03/28 02:16:15;;;;;;;2.50;1.77;;;20.00;49.30;;;;;;5074440;28;20048;-72
2022/03/28 02:18:41;;;;;;;2.22;1.90;;;20.00;49.30;;;;;;5109915;28;20071;-71
2022/03/28 02:21:07;;;;;;;2.58;2.08;;;20.00;49.30;;;;;;5109626;28;20690;-73
2022/03/28 02:23:32;;;;;;;2.00;1.70;;;20.00;49.30;;;;;;5109985;28;20046;-71
2022/03/28 02:25:58;;;;;;;2.67;2.00;;;20.00;49.30;;;;;;5110269;28;20048;-72
2022/03/28 02:28:24;;;;;;;2.55;2.03;;;20.00;49.30;;;;;;5091778;28;20493;-71
2022/03/28 02:30:50;;;;;;;2.13;1.92;;;20.00;49.20;;;;;;5091042;28;20398;-72
2022/03/28 02:33:17;;;;;;;2.72;1.70;;;20.00;49.30;;;;;;5123849;27;20520;-72
2022/03/28 02:35:43;;;;;;;3.97;1.98;;;19.90;49.20;;;;;;5114693;28;20032;-71
2022/03/28 02:38:09;;;;;;;2.20;1.77;;;20.00;49.20;;;;;;5091071;28;20446;-71
2022/03/28 02:40:35;;;;;;;3.13;1.90;;;20.00;49.20;;;;;;5109287;28;20150;-72
2022/03/28 02:43:02;;;;;;;2.33;1.70;;;20.00;49.20;;;;;;5109390;28;20031;-69
2022/03/28 02:45:31;;;;;;;2.53;1.88;;;20.00;49.20;;;;;;5109710;28;20059;-71
2022/03/28 02:47:59;;;;;;;2.22;1.92;;;20.00;49.20;;;;;;5110875;28;20129;-72
2022/03/28 02:50:25;;;;;;;2.08;1.88;;;19.90;49.10;;;;;;5113457;28;20489;-70
2022/03/28 02:52:51;;;;;;;2.33;2.00;;;19.90;49.10;;;;;;5112886;28;20855;-71
2022/03/28 02:55:17;;;;;;;3.10;1.80;;;19.90;49.20;;;;;;5111981;28;20075;-70
2022/03/28 02:57:42;;;;;;;2.70;2.00;;;19.90;49.20;;;;;;5114119;28;20077;-71
2022/03/28 03:00:10;;;;;;;2.35;2.03;;;19.90;49.20;;;;;;5113533;28;20031;-72
2022/03/28 03:02:38;;;;;;;4.30;1.95;;;19.90;49.10;;;;;;5120286;27;20047;-70
2022/03/28 03:05:05;;;;;;;1.83;1.70;;;19.90;49.10;;;;;;5095369;28;20047;-71
2022/03/28 03:07:31;;;;;;;3.92;1.88;;;19.90;49.10;;;;;;5112886;28;20073;-73
2022/03/28 03:09:56;;;;;;;2.13;1.75;;;19.90;49.10;;;;;;5112963;28;20071;-72
2022/03/28 03:12:22;;;;;;;2.58;1.80;;;19.90;49.10;;;;;;5112367;28;20044;-72
2022/03/28 03:14:48;;;;;;;2.13;1.63;;;19.90;49.10;;;;;;5112935;28;20027;-72
2022/03/28 03:17:13;;;;;;;1.60;1.50;;;19.90;49.10;;;;;;5112926;28;20036;-72
2022/03/28 03:19:40;;;;;;;2.85;2.20;;;19.90;49.10;;;;;;5077491;28;20126;-70
2022/03/28 03:22:08;;;;;;;2.58;1.60;;;19.90;49.10;;;;;;5088733;28;20058;-72
2022/03/28 03:24:34;;;;;;;2.28;2.05;;;19.90;49.10;;;;;;5109516;28;20496;-70
2022/03/28 03:27:01;;;;;;;2.75;1.75;;;19.90;49.20;;;;;;5113511;28;20055;-70
2022/03/28 03:29:27;;;;;;;2.65;2.10;;;19.90;49.10;;;;;;5112145;28;20818;-72
2022/03/28 03:31:52;;;;;;;2.05;1.70;;;19.90;49.10;;;;;;5112635;27;20027;-72
2022/03/28 03:34:19;;;;;;;2.75;1.80;;;19.90;49.10;;;;;;5112960;28;20035;-69
2022/03/28 03:36:45;;;;;;;2.55;2.17;;;19.90;49.10;;;;;;5112853;28;20038;-70
2022/03/28 03:39:11;;;;;;;2.08;1.83;;;19.90;49.10;;;;;;5112565;28;20028;-70
2022/03/28 03:41:37;;;;;;;2.38;1.95;;;19.90;49.10;;;;;;5078101;28;20042;-71
2022/03/28 03:44:03;;;;;;;2.10;1.70;;;19.90;49.20;;;;;;5112590;28;20036;-71
2022/03/28 03:46:29;;;;;;;2.10;1.80;;;19.90;49.10;;;;;;5112438;28;20039;-70
2022/03/28 03:48:55;;;;;;;2.88;2.00;;;19.90;49.10;;;;;;5112162;28;20037;-71
2022/03/28 03:51:20;;;;;;;2.55;2.00;;;19.80;49.10;;;;;;5112497;28;20446;-71
2022/03/28 03:53:46;;;;;;;2.97;1.77;;;19.80;49.10;;;;;;5086056;28;20047;-71
2022/03/28 03:56:12;;;;;;;2.13;1.92;;;19.90;49.10;;;;;;5112465;28;20043;-72
2022/03/28 03:58:38;;;;;;;2.00;1.80;;;19.90;49.10;;;;;;5113121;28;20067;-72
2022/03/28 04:01:04;;;;;;;2.83;1.90;;;19.80;49.10;;;;;;5111424;27;20070;-72
2022/03/28 04:03:29;;;;;;;2.00;1.80;;;19.80;49.00;;;;;;5093958;28;20756;-71
2022/03/28 04:05:55;;;;;;;2.30;1.77;;;19.80;49.00;;;;;;5093762;28;20576;-70
2022/03/28 04:08:21;;;;;;;3.13;1.90;;;19.90;49.10;;;;;;5112502;28;20032;-70
2022/03/28 04:10:47;;;;;;;3.33;2.10;;;19.80;49.00;;;;;;5113004;28;20474;-72
2022/03/28 04:13:13;;;;;;;2.13;1.92;;;19.80;49.00;;;;;;5112352;28;20510;-72
2022/03/28 04:15:39;;;;;;;2.05;1.83;;;19.80;49.00;;;;;;5111452;28;20035;-71
2022/03/28 04:18:05;;;;;;;2.65;2.00;;;19.80;49.00;;;;;;5111362;28;20058;-70
2022/03/28 04:20:32;;;;;;;5.95;2.10;;;19.80;49.00;;;;;;5110972;28;20118;-70
2022/03/28 04:22:58;;;;;;;2.50;1.80;;;19.80;49.00;;;;;;5092979;28;20079;-71
2022/03/28 04:25:24;;;;;;;2.35;1.90;;;19.80;49.00;;;;;;5111603;28;20454;-72
2022/03/28 04:27:50;;;;;;;2.15;1.92;;;19.80;49.00;;;;;;5112496;28;20059;-72
2022/03/28 04:30:16;;;;;;;1.88;1.73;;;19.80;49.00;;;;;;5126411;27;20044;-73
2022/03/28 04:32:42;;;;;;;2.10;1.60;;;19.80;49.00;;;;;;5111491;28;20143;-71
2022/03/28 04:35:09;;;;;;;2.88;2.10;;;19.80;49.00;;;;;;5093303;28;20110;-71
2022/03/28 04:37:41;;;;;;;2.30;1.85;;;19.80;49.00;;;;;;5111463;28;20818;-70
2022/03/28 04:40:10;;;;;;;2.25;1.92;;;19.80;49.00;;;;;;5123347;27;20478;-72
2022/03/28 04:42:36;;;;;;;3.30;1.83;;;19.80;49.00;;;;;;5111505;28;20059;-70
2022/03/28 04:45:04;;;;;;;2.33;1.85;;;19.80;49.00;;;;;;5111218;28;20039;-70
2022/03/28 04:47:30;;;;;;;3.17;1.90;;;19.80;49.80;;;;;;5111606;28;20475;-71
2022/03/28 04:49:56;;;;;;;1.90;1.73;;;19.80;49.00;;;;;;5110544;28;20481;-71
2022/03/28 04:52:22;;;;;;;3.33;1.85;;;19.80;49.00;;;;;;5120591;27;20031;-71
2022/03/28 04:54:47;;;;;;;1.98;1.73;;;19.70;49.00;;;;;;5110904;28;20600;-72
2022/03/28 04:57:13;;;;;;;2.58;1.77;;;19.80;49.00;;;;;;5111891;28;20040;-72
2022/03/28 04:59:39;;;;;;;2.53;1.60;;;19.70;49.00;;;;;;5090473;28;20035;-72
2022/03/28 05:02:06;;;;;;;2.20;1.80;;;19.70;48.90;;;;;;5120375;27;20027;-73
2022/03/28 05:04:32;;;;;;;2.45;1.88;;;19.80;49.00;;;;;;5111207;28;20050;-70
2022/03/28 05:06:59;;;;;;;2.17;1.90;;;19.70;49.00;;;;;;5093285;28;20036;-71
2022/03/28 05:09:25;;;;;;;1.90;1.63;;;19.70;48.90;;;;;;5092125;28;20039;-73
2022/03/28 05:11:50;;;;;;;2.22;1.80;;;19.70;48.90;;;;;;5110322;28;20062;-70
2022/03/28 05:14:18;;;;;;;3.05;2.20;;;19.70;49.00;;;;;;5110305;28;20120;-72
2022/03/28 05:16:44;;;;;;;2.60;1.90;;;19.70;48.90;;;;;;5110975;28;20047;-71
2022/03/28 05:19:09;;;;;;;2.40;1.73;;;19.70;49.00;;;;;;5092377;28;20070;-72
2022/03/28 05:21:35;;;;;;;2.58;1.67;;;19.70;49.00;;;;;;5103105;28;20077;-72
2022/03/28 05:24:01;;;;;;;1.70;1.58;;;19.70;49.00;;;;;;5105943;28;20035;-71
2022/03/28 05:26:27;;;;;;;1.75;1.50;;;19.70;49.00;;;;;;5110840;28;20118;-72
2022/03/28 05:28:54;;;;;;;2.45;1.77;;;19.70;49.00;;;;;;5110799;28;20040;-71
2022/03/28 05:31:21;;;;;;;2.13;1.65;;;19.70;49.00;;;;;;5109766;28;20063;-71
2022/03/28 05:33:46;;;;;;;1.98;1.60;;;19.70;48.90;;;;;;5110633;28;20466;-70
2022/03/28 05:36:13;;;;;;;2.05;1.70;;;19.70;48.90;;;;;;5110467;28;20036;-72
2022/03/28 05:38:39;;;;;;;1.70;1.60;;;19.70;49.70;;;;;;5086942;28;20036;-71
2022/03/28 05:41:06;;;;;;;1.80;1.70;;;19.70;48.90;;;;;;5109272;28;20398;-72
2022/03/28 05:43:34;;;;;;;1.98;1.50;;;19.70;49.00;;;;;;5110514;28;20049;-71
2022/03/28 05:46:00;;;;;;;2.80;1.60;;;19.70;49.00;;;;;;5109810;28;20123;-70
2022/03/28 05:48:26;;;;;;;2.58;1.58;;;19.70;49.00;;;;;;5110227;28;20225;-73
2022/03/28 05:50:52;;;;;;;1.60;1.50;;;19.70;48.90;;;;;;5108762;28;20036;-72
2022/03/28 05:53:18;;;;;;;1.75;1.45;;;19.70;49.00;;;;;;5084732;28;20052;-72
2022/03/28 05:55:43;;;;;;;1.65;1.52;;;19.70;48.90;;;;;;5106251;28;20409;-71
2022/03/28 05:58:10;;;;;;;2.10;1.55;;;19.70;48.90;;;;;;5110488;28;20032;-73
2022/03/28 06:00:39;;;;;;;1.40;1.30;;;19.70;48.90;;;;;;5108442;28;20034;-71
2022/03/28 06:03:05;;;;;;;1.73;1.63;;;19.70;48.90;;;;;;5091651;28;20067;-71
2022/03/28 06:05:31;;;;;;;1.70;1.33;;;19.70;48.90;;;;;;5110270;28;20066;-70
2022/03/28 06:07:58;;;;;;;2.08;1.35;;;19.70;48.90;;;;;;5110144;28;20046;-71
2022/03/28 06:10:24;;;;;;;1.60;1.50;;;19.60;48.90;;;;;;5108614;28;20028;-70
2022/03/28 06:12:50;;;;;;;1.40;1.30;;;19.60;48.80;;;;;;5091228;28;20057;-71
2022/03/28 06:15:16;;;;;;;1.73;1.42;;;19.60;48.90;;;;;;5109558;28;20054;-72
2022/03/28 06:17:43;;;;;;;2.08;1.40;;;19.70;48.90;;;;;;5091630;28;20039;-69
2022/03/28 06:20:11;;;;;;;2.47;1.83;;;19.60;48.90;;;;;;5108859;28;20672;-69
2022/03/28 06:22:37;;;;;;;5.90;1.60;;;19.60;48.90;;;;;;5122057;27;20047;-66
2022/03/28 06:25:04;;;;;;;2.60;1.40;;;19.60;48.90;;;;;;5113608;28;20487;-69
2022/03/28 06:27:30;;;;;;;2.85;1.60;;;19.60;48.90;;;;;;5114237;28;20051;-69
2022/03/28 06:29:56;;;;;;;4.35;1.50;;;19.60;49.00;;;;;;5130817;27;20035;-71
2022/03/28 06:32:22;;;;;;;1.88;1.70;;;19.60;49.10;;;;;;5115412;27;20511;-71
2022/03/28 06:34:48;;;;;;;3.67;1.63;;;19.50;49.00;;;;;;5083091;28;20031;-68
2022/03/28 06:37:15;;;;;;;1.70;1.60;;;19.50;49.10;;;;;;5075887;28;20058;-70
2022/03/28 06:39:41;;;;;;;1.90;1.70;;;19.50;49.30;;;;;;5112036;28;20484;-70
2022/03/28 06:42:07;;;;;;;2.55;1.67;;;19.60;49.40;;;;;;5093968;28;20038;-69
2022/03/28 06:44:33;;;;;;;1.52;1.40;;;19.50;49.40;;;;;;5113441;28;20138;-71
2022/03/28 06:46:59;;;;;;;2.78;1.90;;;19.50;49.40;;;;;;5114120;28;20543;-67
2022/03/28 06:49:25;;;;;;;4.40;2.10;;;19.50;49.40;;;;;;5105329;28;20462;-71
2022/03/28 06:51:50;;;;;;;2.00;1.80;;;19.60;49.50;;;;;;5110749;27;20071;-67
2022/03/28 06:54:19;;;;;;;2.42;1.70;;;19.60;49.60;;;;;;5099206;28;20095;-68
2022/03/28 06:56:45;;;;;;;;;;;19.60;49.70;;;;;;5114271;28;20048;-66
2022/03/28 06:59:11;;;;;;;4.28;1.75;;;19.60;50.00;;;;;;5101905;28;20691;-67
2022/03/28 07:01:37;;;;;;;2.72;1.90;;;19.60;49.80;;;;;;5112531;28;20083;-68
2022/03/28 07:04:03;;;;;;;5.30;2.03;;;19.60;50.00;;;;;;5113328;28;20044;-67
2022/03/28 07:06:29;;;;;;;3.00;1.80;;;19.70;50.10;;;;;;5111299;28;20074;-68
2022/03/28 07:08:55;;;;;;;2.45;1.83;;;19.60;50.20;;;;;;5105033;28;20032;-69
2022/03/28 07:11:21;;;;;;;5.55;1.80;;;19.70;50.30;;;;;;5112399;28;20039;-69
2022/03/28 07:13:46;;;;;;;3.33;1.63;;;19.70;50.40;;;;;;5111031;28;20056;-68
2022/03/28 07:16:12;;;;;;;7.70;2.00;;;19.70;50.40;;;;;;5111505;28;20054;-70
2022/03/28 07:18:39;;;;;;;3.42;1.70;;;19.70;50.40;;;;;;5107253;28;20036;-68
2022/03/28 07:21:06;;;;;;;2.42;1.70;;;19.70;50.50;;;;;;5111165;28;20308;-71
2022/03/28 07:23:31;;;;;;;5.47;2.05;;;19.70;50.50;;;;;;5091904;28;20367;-71
2022/03/28 07:25:57;;;;;;;3.78;1.90;;;19.70;50.60;;;;;;5111620;28;20090;-68
2022/03/28 07:28:23;;;;;;;2.75;2.22;;;19.80;50.60;;;;;;5108921;28;20093;-70
2022/03/28 07:30:48;;;;;;;2.88;2.10;;;19.80;50.60;;;;;;5111522;28;20039;-69
2022/03/28 07:33:14;;;;;;;4.45;1.95;;;19.80;50.70;;;;;;5110327;28;20044;-69
2022/03/28 07:35:40;;;;;;;3.50;2.03;;;19.80;50.70;;;;;;5111422;28;20139;-70
2022/03/28 07:38:08;;;;;;;3.65;1.70;;;19.80;50.70;;;;;;5110661;28;20046;-69
2022/03/28 07:40:40;;;;;;;2.30;1.90;;;19.80;50.70;;;;;;5124348;27;20094;-68
2022/03/28 07:43:07;;;;;;;5.90;2.20;;;19.80;50.70;;;;;;5112337;28;20485;-67
2022/03/28 07:45:33;;;;;;;6.55;2.20;;;19.80;50.70;;;;;;5112420;28;20070;-68
2022/03/28 07:47:59;;;;;;;10.13;1.95;;;19.90;50.70;;;;;;5112370;27;20043;-71
2022/03/28 07:50:25;;;;;;;7.35;1.90;;;19.90;50.70;;;;;;5094939;28;20044;-69
2022/03/28 07:52:51;;;;;;;5.07;2.50;;;19.90;50.70;;;;;;5120134;27;20078;-69
2022/03/28 07:55:17;;;;;;;5.40;2.15;;;19.90;50.60;;;;;;5106268;27;20111;-69
2022/03/28 07:57:43;;;;;;;3.20;2.10;;;19.90;50.60;;;;;;5115074;27;20036;-69
2022/03/28 08:00:12;;;;;;;4.60;2.35;;;19.90;50.70;;;;;;5110371;28;20039;-67
2022/03/28 08:02:39;;;;;;;4.38;2.30;;;19.90;50.70;;;;;;5093230;28;20428;-70
2022/03/28 08:05:07;;;;;;;4.63;2.28;;;19.90;50.70;;;;;;5076542;28;20111;-68
2022/03/28 08:07:33;;;;;;;5.65;1.83;;;19.90;50.60;;;;;;5076328;28;20314;-70
2022/03/28 08:10:00;;;;;;;6.32;2.28;;;20.00;50.60;;;;;;5110599;28;20043;-70
2022/03/28 08:12:26;;;;;;;8.73;2.40;;;20.00;50.60;;;;;;5093736;28;20417;-70
2022/03/28 08:14:52;;;;;;;10.35;2.20;;;19.90;50.40;;;;;;5110695;28;20050;-71
2022/03/28 08:17:19;;;;;;;6.53;2.20;;;20.00;50.50;;;;;;5112030;28;20036;-68
2022/03/28 08:19:45;;;;;;;3.58;2.28;;;19.90;50.40;;;;;;5111671;28;20134;-69
2022/03/28 08:22:11;;;;;;;5.72;1.90;;;19.90;50.40;;;;;;5111929;27;20046;-69
2022/03/28 08:24:37;;;;;;;5.80;2.30;;;19.90;50.40;;;;;;5108226;27;20035;-71
2022/03/28 08:27:03;;;;;;;2.70;2.20;;;20.00;50.50;;;;;;5107365;28;20043;-67
2022/03/28 08:29:29;;;;;;;5.20;1.95;;;20.00;50.50;;;;;;5106240;28;20105;-70
2022/03/28 08:31:54;;;;;;;6.18;2.22;;;20.00;50.60;;;;;;5090427;28;20040;-69
2022/03/28 08:34:20;;;;;;;5.55;2.80;;;20.00;50.70;;;;;;5112047;28;20088;-71
2022/03/28 08:36:46;;;;;;;6.55;2.40;;;20.00;50.60;;;;;;5092553;28;20047;-70
2022/03/28 08:39:12;;;;;;;4.10;2.03;;;20.00;50.70;;;;;;5092391;28;20538;-70
2022/03/28 08:41:39;;;;;;;4.38;2.00;;;20.00;50.70;;;;;;5110869;28;20043;-70
2022/03/28 08:44:05;;;;;;;6.93;2.10;;;20.00;50.60;;;;;;5109377;28;20035;-70
2022/03/28 08:46:31;;;;;;;8.18;2.40;;;20.10;50.60;;;;;;5109117;28;20034;-70
2022/03/28 08:48:58;;;;;;;3.53;1.90;;;20.10;50.60;;;;;;5110668;28;20539;-68
2022/03/28 08:51:24;;;;;;;5.88;1.92;;;20.10;50.40;;;;;;5111838;28;20035;-71
2022/03/28 08:53:50;;;;;;;2.15;1.88;;;20.10;50.30;;;;;;5107484;27;20491;-69
2022/03/28 08:56:16;;;;;;;2.88;2.00;;;20.10;50.10;;;;;;5103412;28;20034;-68
2022/03/28 08:58:42;;;;;;;6.97;2.53;;;20.10;49.90;;;;;;5105797;28;20032;-70
2022/03/28 09:01:08;;;;;;;4.32;1.85;;;20.10;50.00;;;;;;5091396;28;20431;-68
2022/03/28 09:03:48;;;;;;;4.85;2.38;;;20.10;49.80;;;;;;5110242;28;20070;-68
2022/03/28 09:06:38;;;;;;;2.72;1.75;;;20.10;49.70;;;;;;5092590;28;20090;-67
2022/03/28 09:09:26;;;;;;;6.10;1.85;;;20.10;49.70;;;;;;5097144;27;20047;-71
2022/03/28 09:11:57;;;;;;;4.90;2.03;;;20.10;49.60;;;;;;5088990;28;20040;-68
2022/03/28 09:14:34;;;;;;;5.03;1.75;;;20.10;49.60;;;;;;5093466;28;20052;-68
2022/03/28 09:17:04;;;;;;;5.05;2.08;;;20.20;49.70;;;;;;5108017;28;20044;-68
2022/03/28 09:20:09;;;;;;;3.28;1.80;;;20.20;49.80;;;;;;5093991;28;20039;-68
2022/03/28 09:22:41;;;;;;;3.97;1.75;;;20.20;49.80;;;;;;4993104;28;20107;-70
2022/03/28 09:25:09;;;;;;;3.70;2.05;;;20.20;49.90;;;;;;5018081;28;20619;-70
2022/03/28 09:27:39;;;;;;;3.15;1.90;;;20.20;49.80;;;;;;5054779;28;20057;-75
2022/03/28 09:30:16;;;;;;;3.95;2.10;;;20.20;49.90;;;;;;5101656;28;20032;-73
2022/03/28 09:32:47;;;;;;;5.07;1.77;;;20.20;50.00;;;;;;5109910;28;20020;-73
2022/03/28 09:35:19;;;;;;;5.53;1.90;;;20.30;50.20;;;;;;5106017;28;20039;-70
2022/03/28 09:38:03;;;;;;;3.58;1.95;;;20.30;50.20;;;;;;5092658;27;20126;-66
2022/03/28 09:40:45;;;;;;;4.45;1.73;;;20.30;50.20;;;;;;5097704;28;20124;-64
2022/03/28 09:43:20;;;;;;;5.80;2.08;;;20.30;50.10;;;;;;5110348;28;21492;-64
2022/03/28 09:45:50;;;;;;;3.92;1.85;;;20.30;50.10;;;;;;5074211;28;20036;-67
2022/03/28 09:48:19;;;;;;;6.03;2.10;;;20.30;50.00;;;;;;5108253;28;20043;-65
2022/03/28 09:50:56;;;;;;;8.55;2.83;;;20.30;49.90;;;;;;5104824;28;20055;-65
2022/03/28 09:53:25;;;;;;;11.77;2.85;;;20.30;49.90;;;;;;5105927;28;20040;-65
2022/03/28 09:56:00;;;;;;;17.23;2.45;;;20.30;49.90;;;;;;5113560;27;20036;-66
2022/03/28 09:59:07;;;;;;;15.32;3.30;;;20.30;49.70;;;;;;5108640;28;20046;-66
2022/03/28 10:01:38;;;;;;;17.27;3.10;;;20.30;49.70;;;;;;5007392;28;20046;-68
2022/03/28 10:04:09;;;;;;;18.52;3.10;;;20.30;49.90;;;;;;5097534;28;20058;-64
2022/03/28 10:06:39;;;;;;;32.90;4.18;;;20.40;49.80;;;;;;5110672;28;20201;-65
2022/03/28 20:06:33;;;;;;;16.02;6.10;;;20.50;53.30;;;;;;5117857;27;20459;-71
2022/03/28 20:08:58;;;;;;;11.18;5.90;;;20.50;52.10;;;;;;5101814;28;20521;-71
2022/03/28 20:11:24;;;;;;;12.27;5.97;;;20.50;53.00;;;;;;5101461;28;20032;-73
2022/03/28 20:13:54;;;;;;;15.20;6.32;;;20.50;53.50;;;;;;5100906;28;20036;-72
2022/03/28 20:16:21;;;;;;;10.90;6.00;;;20.50;53.80;;;;;;5084402;28;20536;-72
2022/03/28 20:18:47;;;;;;;14.98;6.20;;;20.50;54.00;;;;;;5102603;28;20397;-71
2022/03/28 20:21:13;;;;;;;13.02;6.10;;;20.50;54.10;;;;;;5101982;28;20605;-71
2022/03/28 20:23:38;;;;;;;13.35;6.22;;;20.50;54.10;;;;;;5083695;28;20054;-72
2022/03/28 20:26:04;;;;;;;14.38;5.65;;;20.50;54.20;;;;;;5125196;27;20127;-72
2022/03/28 20:28:31;;;;;;;9.45;5.68;;;20.50;54.20;;;;;;5093476;28;20028;-71
2022/03/28 20:30:57;;;;;;;6.82;5.35;;;20.50;54.20;;;;;;5101910;28;20036;-71
2022/03/28 20:33:23;;;;;;;11.68;6.10;;;20.50;54.10;;;;;;5118137;28;20477;-71
2022/03/28 20:35:49;;;;;;;11.75;5.93;;;20.50;54.10;;;;;;5101226;28;20032;-71
2022/03/28 20:38:15;;;;;;;9.98;5.47;;;20.50;54.10;;;;;;5084089;28;20100;-70
2022/03/28 20:40:40;;;;;;;9.60;5.60;;;20.50;54.00;;;;;;5127504;27;20080;-70
2022/03/28 20:43:06;;;;;;;10.07;5.75;;;20.50;54.00;;;;;;5100176;28;20051;-70
2022/03/28 20:45:32;;;;;;;10.63;5.55;;;20.50;54.00;;;;;;5102016;28;20135;-73
2022/03/28 20:47:58;;;;;;;9.18;5.53;;;20.50;53.90;;;;;;5102485;28;20028;-75
2022/03/28 20:50:24;;;;;;;13.50;5.75;;;20.50;53.80;;;;;;5099925;28;20537;-73
2022/03/28 20:52:53;;;;;;;14.20;5.97;;;20.50;53.70;;;;;;5118590;27;20130;-72
2022/03/28 20:55:18;;;;;;;9.15;5.80;;;20.50;53.60;;;;;;5082279;28;20466;-71
2022/03/28 20:57:44;;;;;;;9.65;5.38;;;20.40;53.50;;;;;;5101185;28;20055;-72
2022/03/28 21:00:10;;;;;;;12.70;5.78;;;20.50;53.50;;;;;;5100198;28;20135;-73
2022/03/28 21:02:36;;;;;;;10.40;5.32;;;20.40;53.40;;;;;;5101114;28;20138;-72
2022/03/28 21:05:02;;;;;;;8.05;5.40;;;20.40;53.40;;;;;;5126704;27;20407;-72
2022/03/28 21:07:28;;;;;;;10.23;5.25;;;20.40;53.30;;;;;;5099943;28;20066;-74
2022/03/28 21:09:54;;;;;;;11.25;5.55;;;20.40;53.30;;;;;;5101507;28;20043;-72
2022/03/28 21:12:21;;;;;;;9.63;5.45;;;20.40;53.30;;;;;;5101140;28;20106;-72
2022/03/28 21:14:46;;;;;;;12.75;5.68;;;20.40;53.20;;;;;;5100226;28;20491;-72
2022/03/28 21:17:12;;;;;;;11.18;5.30;;;20.40;53.20;;;;;;5089934;28;20051;-72
2022/03/28 21:19:38;;;;;;;8.00;5.38;;;20.40;53.10;;;;;;5083471;28;20780;-73
2022/03/28 21:22:08;;;;;;;8.63;5.22;;;20.40;53.10;;;;;;5086484;28;20043;-72
2022/03/28 21:24:34;;;;;;;7.28;4.97;;;20.40;53.10;;;;;;5084822;28;20533;-72
2022/03/28 21:26:59;;;;;;;7.40;4.95;;;20.40;53.10;;;;;;5087892;28;20082;-72
2022/03/28 21:29:25;;;;;;;10.10;5.03;;;20.40;53.10;;;;;;5084762;28;20154;-72
2022/03/28 21:31:50;;;;;;;8.38;5.25;;;20.40;53.00;;;;;;5086183;28;20229;-72
2022/03/28 21:34:16;;;;;;;10.13;4.80;;;20.40;53.00;;;;;;5086171;28;20617;-73
2022/03/28 21:36:42;;;;;;;8.63;5.28;;;20.40;53.00;;;;;;5086671;28;20503;-72
2022/03/28 21:39:09;;;;;;;7.93;4.80;;;20.40;53.00;;;;;;5083678;28;20044;-72
2022/03/28 21:41:35;;;;;;;7.15;4.53;;;20.30;52.90;;;;;;5086150;28;20047;-72
2022/03/28 21:44:00;;;;;;;9.13;4.68;;;20.40;53.00;;;;;;5068213;28;20040;-72
2022/03/28 21:46:26;;;;;;;8.48;5.10;;;20.30;52.90;;;;;;5082782;28;20052;-72
2022/03/28 21:48:52;;;;;;;8.43;4.57;;;20.30;52.90;;;;;;5089098;28;20040;-73
2022/03/28 21:51:17;;;;;;;6.50;4.40;;;20.30;52.90;;;;;;5085308;28;20043;-72
2022/03/28 21:53:43;;;;;;;9.48;5.35;;;20.30;52.90;;;;;;5119351;27;20452;-72
2022/03/28 21:56:09;;;;;;;6.53;4.72;;;20.30;52.90;;;;;;5073112;28;20070;-71
2022/03/28 21:58:34;;;;;;;6.32;4.40;;;20.30;52.90;;;;;;5084832;28;20381;-72
2022/03/28 22:01:01;;;;;;;5.88;4.60;;;20.30;52.90;;;;;;5085542;28;20051;-71
2022/03/28 22:03:27;;;;;;;6.63;4.50;;;20.30;52.90;;;;;;5068475;28;20036;-72
2022/03/28 22:05:55;;;;;;;6.72;4.25;;;20.30;52.80;;;;;;5077844;28;20149;-71
2022/03/28 22:08:22;;;;;;;7.65;4.38;;;20.30;52.80;;;;;;5079736;28;20507;-73
2022/03/28 22:10:49;;;;;;;5.53;4.20;;;20.20;52.70;;;;;;5098493;28;20058;-73
2022/03/28 22:13:15;;;;;;;10.63;4.55;;;20.30;52.80;;;;;;5083582;28;20074;-76
2022/03/28 22:15:41;;;;;;;6.43;4.25;;;20.30;52.80;;;;;;5067909;28;20040;-75
2022/03/28 22:18:06;;;;;;;5.55;4.43;;;20.20;52.80;;;;;;5083996;28;20453;-77
2022/03/28 22:20:32;;;;;;;7.75;4.07;;;20.20;52.70;;;;;;5084162;28;20032;-76
2022/03/28 22:22:58;;;;;;;5.28;4.10;;;20.20;52.70;;;;;;5084123;28;20046;-76
2022/03/28 22:25:24;;;;;;;5.43;3.90;;;20.20;52.70;;;;;;5096942;28;20048;-76
2022/03/28 22:27:50;;;;;;;6.57;4.13;;;20.20;52.70;;;;;;5083460;28;20060;-75
2022/03/28 22:30:17;;;;;;;5.75;4.20;;;20.20;52.70;;;;;;5083733;28;20118;-75
2022/03/28 22:32:43;;;;;;;5.97;4.32;;;20.20;52.70;;;;;;5084176;28;20690;-75
2022/03/28 22:35:09;;;;;;;6.30;4.03;;;20.20;52.60;;;;;;5082784;28;20032;-74
2022/03/28 22:37:39;;;;;;;6.20;4.28;;;20.10;52.60;;;;;;5102137;28;20632;-79
2022/03/28 22:40:07;;;;;;;5.90;4.70;;;20.20;52.60;;;;;;5064451;28;20081;-75
2022/03/28 22:42:33;;;;;;;4.57;3.67;;;20.20;52.60;;;;;;5082699;28;20518;-76
2022/03/28 22:44:59;;;;;;;6.03;4.13;;;20.10;52.50;;;;;;5067431;28;20042;-75